Time;durP1;ratioP1;P1;durP2;ratioP2;P2;SDS_P1;SDS_P2;PMS_P1;PMS_P2;Temp;Humidity;BMP_temperature;BMP_pressure;BME280_temperature;BME280_humidity;BME280_pressure;Samples;Min_cycle;Max_cycle;Signal;HPM_P1;HPM_P2
2023/07/07 00:00:07;;;;;;;6.82;2.65;;;;;;;;;;5022128;28;20098;-70
2023/07/07 00:02:33;;;;;;;4.97;3.25;;;;;;;;;;5035230;28;20057;-70
2023/07/07 00:04:58;;;;;;;4.25;3.10;;;;;;;;;;5041489;28;20114;-70
2023/07/07 00:07:24;;;;;;;4.20;2.80;;;;;;;;;;5037727;28;20112;-70
2023/07/07 00:09:49;;;;;;;4.85;2.58;;;;;;;;;;5041089;28;20080;-70
2023/07/07 00:12:16;;;;;;;4.90;2.97;;;;;;;;;;5038582;28;20076;-71
2023/07/07 00:14:42;;;;;;;6.22;2.97;;;;;;;;;;5039707;28;20497;-71
2023/07/07 00:17:12;;;;;;;4.55;2.67;;;;;;;;;;5032951;28;20083;-72
2023/07/07 00:19:37;;;;;;;4.78;2.75;;;;;;;;;;5037187;28;20055;-72
2023/07/07 00:22:06;;;;;;;4.72;2.65;;;;;;;;;;5040600;28;20049;-71
2023/07/07 00:24:32;;;;;;;4.25;2.90;;;;;;;;;;5031543;28;20132;-71
2023/07/07 00:26:59;;;;;;;3.75;2.65;;;;;;;;;;5040260;28;20041;-71
2023/07/07 00:29:25;;;;;;;5.13;2.88;;;;;;;;;;5040788;28;20052;-71
2023/07/07 00:31:50;;;;;;;3.72;2.70;;;;;;;;;;5026773;28;20045;-71
2023/07/07 00:34:16;;;;;;;5.45;2.55;;;;;;;;;;5012947;28;20084;-72
2023/07/07 00:36:41;;;;;;;4.45;2.70;;;;;;;;;;5027736;28;20084;-70
2023/07/07 00:39:07;;;;;;;5.65;2.85;;;;;;;;;;5040521;28;20506;-72
2023/07/07 00:41:32;;;;;;;3.83;2.92;;;;;;;;;;5039562;28;20148;-71
2023/07/07 00:43:59;;;;;;;3.35;2.40;;;;;;;;;;5039099;28;20044;-71
2023/07/07 00:46:24;;;;;;;4.00;2.55;;;;;;;;;;5030221;28;20169;-71
2023/07/07 00:48:50;;;;;;;4.80;2.80;;;;;;;;;;5030665;28;20598;-72
2023/07/07 00:51:24;;;;;;;4.13;2.50;;;;;;;;;;5027889;28;20046;-71
2023/07/07 00:53:52;;;;;;;5.03;2.90;;;;;;;;;;5035654;28;20045;-71
2023/07/07 00:56:30;;;;;;;4.85;3.20;;;;;;;;;;5028567;28;20088;-72
2023/07/07 00:59:03;;;;;;;5.40;2.88;;;;;;;;;;5019882;28;20049;-72
2023/07/07 01:01:28;;;;;;;3.40;2.47;;;;;;;;;;5011658;28;20053;-72
2023/07/07 01:03:57;;;;;;;4.13;2.38;;;;;;;;;;5034154;28;20045;-72
2023/07/07 01:06:29;;;;;;;4.78;2.92;;;;;;;;;;5018291;28;20045;-73
2023/07/07 01:08:59;;;;;;;3.65;2.25;;;;;;;;;;5021773;28;20053;-72
2023/07/07 01:11:24;;;;;;;5.57;2.65;;;;;;;;;;5027487;28;20124;-73
2023/07/07 01:13:50;;;;;;;5.95;2.80;;;;;;;;;;5009998;28;20062;-72
2023/07/07 01:16:51;;;;;;;4.90;2.58;;;;;;;;;;5009381;28;20055;-73
2023/07/07 01:19:28;;;;;;;4.68;2.42;;;;;;;;;;5029517;28;20072;-72
2023/07/07 01:21:59;;;;;;;5.95;2.85;;;;;;;;;;5029054;28;20149;-72
2023/07/07 01:24:52;;;;;;;5.30;2.72;;;;;;;;;;5001523;28;20139;-70
2023/07/07 01:27:26;;;;;;;5.38;2.60;;;;;;;;;;5019604;28;20045;-70
2023/07/07 01:30:14;;;;;;;5.50;2.47;;;;;;;;;;5007347;28;20053;-70
2023/07/07 01:32:42;;;;;;;3.75;2.53;;;;;;;;;;5018198;28;20068;-69
2023/07/07 01:35:18;;;;;;;3.55;2.70;;;;;;;;;;5020168;28;20498;-70
2023/07/07 01:37:54;;;;;;;4.25;2.67;;;;;;;;;;5019441;28;20041;-71
2023/07/07 01:40:25;;;;;;;4.20;2.70;;;;;;;;;;5021003;28;20538;-71
2023/07/07 01:42:58;;;;;;;4.25;2.60;;;;;;;;;;5018865;28;20064;-71
2023/07/07 01:45:31;;;;;;;3.80;3.00;;;;;;;;;;5018999;28;20048;-71
2023/07/07 01:48:19;;;;;;;5.35;2.85;;;;;;;;;;5019704;28;20049;-71
2023/07/07 01:50:47;;;;;;;3.03;2.38;;;;;;;;;;5027911;28;21273;-71
2023/07/07 01:53:20;;;;;;;4.90;2.72;;;;;;;;;;5018845;28;20048;-71
2023/07/07 01:55:50;;;;;;;7.00;3.00;;;;;;;;;;5018562;28;20107;-71
2023/07/07 01:58:18;;;;;;;4.30;2.90;;;;;;;;;;5017349;28;20409;-72
2023/07/07 02:00:44;;;;;;;5.88;2.78;;;;;;;;;;5022103;28;20863;-71
2023/07/07 02:03:10;;;;;;;4.50;2.55;;;;;;;;;;5019816;28;20049;-71
2023/07/07 02:05:36;;;;;;;4.47;2.95;;;;;;;;;;5019937;28;20536;-70
2023/07/07 02:08:02;;;;;;;4.20;3.00;;;;;;;;;;5022244;28;20049;-70
2023/07/07 02:10:27;;;;;;;6.65;2.78;;;;;;;;;;5022319;28;20052;-70
2023/07/07 02:12:53;;;;;;;5.82;2.60;;;;;;;;;;5034602;28;20041;-70
2023/07/07 02:15:18;;;;;;;5.25;2.78;;;;;;;;;;5018223;28;20041;-70
2023/07/07 02:17:44;;;;;;;6.60;2.67;;;;;;;;;;5018230;28;20037;-70
2023/07/07 02:20:10;;;;;;;3.78;2.63;;;;;;;;;;5020358;28;20136;-70
2023/07/07 02:22:37;;;;;;;6.00;2.60;;;;;;;;;;5022340;28;20065;-70
2023/07/07 02:25:03;;;;;;;3.53;2.70;;;;;;;;;;5019852;28;20470;-70
2023/07/07 02:27:29;;;;;;;4.25;2.72;;;;;;;;;;5006583;28;20498;-72
2023/07/07 02:29:54;;;;;;;3.97;2.80;;;;;;;;;;5018459;28;20613;-72
2023/07/07 02:32:20;;;;;;;7.03;2.63;;;;;;;;;;5017904;28;20564;-70
2023/07/07 02:34:47;;;;;;;7.40;2.75;;;;;;;;;;5022288;28;20045;-71
2023/07/07 02:37:17;;;;;;;4.32;2.55;;;;;;;;;;5023536;28;20398;-71
2023/07/07 02:39:44;;;;;;;4.68;2.63;;;;;;;;;;5040538;28;20516;-71
2023/07/07 02:42:10;;;;;;;4.38;3.08;;;;;;;;;;5023114;28;20127;-71
2023/07/07 02:44:37;;;;;;;4.57;2.85;;;;;;;;;;5021737;28;20406;-71
2023/07/07 02:47:02;;;;;;;3.42;2.58;;;;;;;;;;5026575;28;20037;-71
2023/07/07 02:49:28;;;;;;;4.25;2.88;;;;;;;;;;5021905;28;20041;-71
2023/07/07 02:51:53;;;;;;;4.63;3.00;;;;;;;;;;5023048;28;20045;-71
2023/07/07 02:54:19;;;;;;;4.40;2.75;;;;;;;;;;5021812;28;20107;-70
2023/07/07 02:56:44;;;;;;;4.63;3.03;;;;;;;;;;5032341;28;20064;-71
2023/07/07 02:59:10;;;;;;;3.60;2.45;;;;;;;;;;5023309;28;20045;-71
2023/07/07 03:01:35;;;;;;;4.65;2.90;;;;;;;;;;5032904;28;20506;-72
2023/07/07 03:04:01;;;;;;;5.07;3.05;;;;;;;;;;5027608;28;20061;-72
2023/07/07 03:06:27;;;;;;;4.43;2.90;;;;;;;;;;5025170;28;20079;-73
2023/07/07 03:08:53;;;;;;;4.65;2.95;;;;;;;;;;5019853;28;20144;-74
2023/07/07 03:11:23;;;;;;;5.85;2.90;;;;;;;;;;5021007;28;20148;-72
2023/07/07 03:13:49;;;;;;;4.05;2.95;;;;;;;;;;5023805;28;20105;-72
2023/07/07 03:16:22;;;;;;;5.32;3.13;;;;;;;;;;5019954;28;20065;-73
2023/07/07 03:18:56;;;;;;;10.07;3.25;;;;;;;;;;5020136;28;20045;-72
2023/07/07 03:21:23;;;;;;;4.75;3.05;;;;;;;;;;5021294;28;20140;-72
2023/07/07 03:23:56;;;;;;;4.95;2.90;;;;;;;;;;5029113;28;20049;-72
2023/07/07 03:26:26;;;;;;;5.13;3.10;;;;;;;;;;5031016;28;20057;-72
2023/07/07 03:28:53;;;;;;;4.88;2.95;;;;;;;;;;5021001;28;20556;-72
2023/07/07 03:31:22;;;;;;;5.13;3.22;;;;;;;;;;5031088;28;20131;-72
2023/07/07 03:33:50;;;;;;;4.78;3.10;;;;;;;;;;5036539;28;20049;-73
2023/07/07 03:36:21;;;;;;;5.32;3.08;;;;;;;;;;5024676;28;20072;-73
2023/07/07 03:38:46;;;;;;;3.95;2.80;;;;;;;;;;5024583;28;20050;-72
2023/07/07 03:41:19;;;;;;;4.97;3.28;;;;;;;;;;5025037;28;20045;-71
2023/07/07 03:43:45;;;;;;;4.60;2.90;;;;;;;;;;5025692;28;20053;-72
2023/07/07 03:46:18;;;;;;;5.15;3.17;;;;;;;;;;5019924;28;20557;-72
2023/07/07 03:48:46;;;;;;;8.38;3.13;;;;;;;;;;5020899;28;20057;-71
2023/07/07 03:51:13;;;;;;;6.97;3.22;;;;;;;;;;5004192;28;20120;-71
2023/07/07 03:53:39;;;;;;;6.78;3.20;;;;;;;;;;5023310;28;20795;-72
2023/07/07 03:56:06;;;;;;;4.55;3.47;;;;;;;;;;5022547;28;20065;-71
2023/07/07 03:58:32;;;;;;;5.13;3.15;;;;;;;;;;5010570;28;20502;-71
2023/07/07 04:01:02;;;;;;;4.28;2.85;;;;;;;;;;5020937;28;20091;-71
2023/07/07 04:03:28;;;;;;;5.85;3.13;;;;;;;;;;5022034;28;20077;-72
2023/07/07 04:05:55;;;;;;;5.85;3.05;;;;;;;;;;5027637;28;20147;-71
2023/07/07 04:08:24;;;;;;;10.85;3.65;;;;;;;;;;5028160;28;20079;-71
2023/07/07 04:11:02;;;;;;;6.45;3.33;;;;;;;;;;5020531;28;20049;-71
2023/07/07 04:13:29;;;;;;;5.25;3.33;;;;;;;;;;5027151;28;20449;-72
2023/07/07 04:16:04;;;;;;;5.18;3.22;;;;;;;;;;5024222;28;20045;-72
2023/07/07 04:18:33;;;;;;;3.03;2.38;;;;;;;;;;5001374;28;20053;-71
2023/07/07 04:21:09;;;;;;;4.55;3.08;;;;;;;;;;5019649;28;20045;-71
2023/07/07 04:23:36;;;;;;;6.13;2.92;;;;;;;;;;5020574;28;20673;-71
2023/07/07 04:26:02;;;;;;;9.13;3.30;;;;;;;;;;5023940;28;20066;-71
2023/07/07 04:28:29;;;;;;;4.25;2.88;;;;;;;;;;5025934;28;20049;-72
2023/07/07 04:30:57;;;;;;;5.00;3.15;;;;;;;;;;5024303;28;20041;-72
2023/07/07 04:33:24;;;;;;;5.35;3.15;;;;;;;;;;5022408;28;20041;-72
2023/07/07 04:35:58;;;;;;;6.75;3.20;;;;;;;;;;5023871;28;20430;-71
2023/07/07 04:38:30;;;;;;;4.60;2.88;;;;;;;;;;5022802;28;20042;-72
2023/07/07 04:41:20;;;;;;;4.55;3.17;;;;;;;;;;5005233;28;20524;-72
2023/07/07 04:43:48;;;;;;;5.63;3.10;;;;;;;;;;5024799;28;20114;-72
2023/07/07 04:46:24;;;;;;;5.05;3.22;;;;;;;;;;5023996;28;20052;-72
2023/07/07 04:48:49;;;;;;;5.68;3.33;;;;;;;;;;5028955;28;20069;-72
2023/07/07 04:51:15;;;;;;;6.32;3.00;;;;;;;;;;5022579;28;20132;-73
2023/07/07 04:53:41;;;;;;;4.65;3.03;;;;;;;;;;5023205;28;20049;-72
2023/07/07 04:56:11;;;;;;;4.13;2.65;;;;;;;;;;5025703;28;20124;-72
2023/07/07 04:58:39;;;;;;;5.47;3.03;;;;;;;;;;5027015;28;20049;-72
2023/07/07 05:01:20;;;;;;;4.75;2.85;;;;;;;;;;5024562;28;20132;-73
2023/07/07 05:03:51;;;;;;;7.32;3.08;;;;;;;;;;5034182;28;20068;-72
2023/07/07 05:06:18;;;;;;;4.50;3.03;;;;;;;;;;5019836;28;20056;-74
2023/07/07 05:08:43;;;;;;;5.75;2.83;;;;;;;;;;5020514;28;20052;-74
2023/07/07 05:11:11;;;;;;;6.50;2.70;;;;;;;;;;5021382;28;20045;-71
2023/07/07 05:13:36;;;;;;;4.93;3.13;;;;;;;;;;5027907;28;20132;-71
2023/07/07 05:16:05;;;;;;;4.15;2.78;;;;;;;;;;5022092;28;20127;-71
2023/07/07 05:18:31;;;;;;;4.68;3.22;;;;;;;;;;5021601;28;20049;-70
2023/07/07 05:20:57;;;;;;;4.07;2.72;;;;;;;;;;5021404;28;20047;-70
2023/07/07 05:23:23;;;;;;;4.15;2.70;;;;;;;;;;5037840;28;20049;-71
2023/07/07 05:25:49;;;;;;;4.10;2.80;;;;;;;;;;5021883;28;20525;-70
2023/07/07 05:28:15;;;;;;;6.68;3.28;;;;;;;;;;5022292;28;20040;-71
2023/07/07 05:30:41;;;;;;;3.85;2.40;;;;;;;;;;5022659;28;20066;-71
2023/07/07 05:33:07;;;;;;;7.30;3.10;;;;;;;;;;5020888;28;21041;-71
2023/07/07 05:35:32;;;;;;;7.75;3.08;;;;;;;;;;5021102;28;20052;-70
2023/07/07 05:38:00;;;;;;;6.07;2.78;;;;;;;;;;5023248;28;20045;-70
2023/07/07 05:40:28;;;;;;;3.50;2.58;;;;;;;;;;5020641;28;20036;-71
2023/07/07 05:42:54;;;;;;;4.05;2.95;;;;;;;;;;5023563;28;20123;-71
2023/07/07 05:45:23;;;;;;;5.80;2.80;;;;;;;;;;5023010;28;20414;-70
2023/07/07 05:47:48;;;;;;;6.82;3.03;;;;;;;;;;5024719;28;20056;-72
2023/07/07 05:50:14;;;;;;;5.78;3.40;;;;;;;;;;5024626;28;20076;-71
2023/07/07 05:52:39;;;;;;;3.78;2.63;;;;;;;;;;5007666;28;20063;-72
2023/07/07 05:55:05;;;;;;;4.35;2.70;;;;;;;;;;5019508;28;20201;-69
2023/07/07 05:57:31;;;;;;;4.35;2.83;;;;;;;;;;5020281;28;20590;-70
2023/07/07 05:59:56;;;;;;;4.60;3.05;;;;;;;;;;5029802;28;20132;-71
2023/07/07 06:02:22;;;;;;;4.57;3.08;;;;;;;;;;5025597;28;20056;-71
2023/07/07 06:04:47;;;;;;;6.22;3.20;;;;;;;;;;5024189;28;20866;-71
2023/07/07 06:07:13;;;;;;;4.38;2.88;;;;;;;;;;5023571;28;20038;-70
2023/07/07 06:09:38;;;;;;;3.63;2.92;;;;;;;;;;5020773;28;20125;-72
2023/07/07 06:12:05;;;;;;;3.42;2.70;;;;;;;;;;5029943;28;20052;-74
2023/07/07 06:14:30;;;;;;;5.88;2.60;;;;;;;;;;5022869;28;20068;-73
2023/07/07 06:16:56;;;;;;;4.20;2.78;;;;;;;;;;5026328;28;20036;-71
2023/07/07 06:19:21;;;;;;;3.72;2.75;;;;;;;;;;5025045;28;20045;-72
2023/07/07 06:21:47;;;;;;;4.90;3.22;;;;;;;;;;5028918;28;20041;-73
2023/07/07 06:24:12;;;;;;;3.53;2.55;;;;;;;;;;5028566;28;20060;-72
2023/07/07 06:26:38;;;;;;;3.55;2.63;;;;;;;;;;5010919;28;20049;-72
2023/07/07 06:29:03;;;;;;;4.10;2.47;;;;;;;;;;5029154;28;20400;-73
2023/07/07 06:31:29;;;;;;;6.07;2.95;;;;;;;;;;5025117;28;20399;-72
2023/07/07 06:33:55;;;;;;;3.65;2.78;;;;;;;;;;5021453;28;20041;-71
2023/07/07 06:36:20;;;;;;;6.30;2.80;;;;;;;;;;5024235;28;20045;-71
2023/07/07 06:38:46;;;;;;;4.20;2.95;;;;;;;;;;5028832;28;20061;-73
2023/07/07 06:41:12;;;;;;;7.97;2.60;;;;;;;;;;5025148;28;20045;-71
2023/07/07 06:43:38;;;;;;;4.15;2.90;;;;;;;;;;5022752;28;20049;-72
2023/07/07 06:46:03;;;;;;;4.15;3.03;;;;;;;;;;5025723;28;20111;-71
2023/07/07 06:48:29;;;;;;;8.35;2.50;;;;;;;;;;5024506;28;20041;-69
2023/07/07 06:50:54;;;;;;;3.90;2.80;;;;;;;;;;5024109;28;20067;-70
2023/07/07 06:53:20;;;;;;;3.20;2.20;;;;;;;;;;5030382;28;20528;-71
2023/07/07 06:55:45;;;;;;;4.15;2.70;;;;;;;;;;5030824;28;20055;-73
2023/07/07 06:58:13;;;;;;;4.75;2.78;;;;;;;;;;5022802;28;20052;-68
2023/07/07 07:00:39;;;;;;;3.58;2.53;;;;;;;;;;5028574;28;20067;-71
2023/07/07 07:03:05;;;;;;;4.60;3.20;;;;;;;;;;5023076;28;20065;-70
2023/07/07 07:05:30;;;;;;;4.18;3.05;;;;;;;;;;5028503;28;20054;-72
2023/07/07 07:07:55;;;;;;;7.35;3.20;;;;;;;;;;5024497;28;20038;-73
2023/07/07 07:10:21;;;;;;;5.47;3.05;;;;;;;;;;5021557;28;20047;-72
2023/07/07 07:12:48;;;;;;;3.45;2.45;;;;;;;;;;5030176;28;20057;-74
2023/07/07 07:15:14;;;;;;;5.53;2.85;;;;;;;;;;5025893;28;20624;-73
2023/07/07 07:17:39;;;;;;;4.72;3.00;;;;;;;;;;5010839;28;20046;-72
2023/07/07 07:20:10;;;;;;;4.55;2.60;;;;;;;;;;5028041;28;20428;-72
2023/07/07 07:22:36;;;;;;;3.35;2.50;;;;;;;;;;5023103;28;20123;-73
2023/07/07 07:25:02;;;;;;;5.80;2.75;;;;;;;;;;5026348;28;20448;-72
2023/07/07 07:27:27;;;;;;;10.18;3.22;;;;;;;;;;5024568;28;20632;-73
2023/07/07 07:29:53;;;;;;;6.38;2.78;;;;;;;;;;5023218;28;20045;-72
2023/07/07 07:32:18;;;;;;;3.80;2.47;;;;;;;;;;5022992;28;20096;-75
2023/07/07 07:34:44;;;;;;;3.88;2.63;;;;;;;;;;5034429;28;20473;-74
2023/07/07 07:37:10;;;;;;;4.70;2.90;;;;;;;;;;5026603;28;20129;-73
2023/07/07 07:39:35;;;;;;;4.65;2.60;;;;;;;;;;5027326;28;20049;-73
2023/07/07 07:42:02;;;;;;;3.78;2.38;;;;;;;;;;5025886;28;20170;-74
2023/07/07 07:44:28;;;;;;;5.57;2.92;;;;;;;;;;5022506;28;20050;-74
2023/07/07 07:46:56;;;;;;;3.13;2.50;;;;;;;;;;5025403;28;20048;-73
2023/07/07 07:49:23;;;;;;;4.93;2.50;;;;;;;;;;5029318;28;20410;-71
2023/07/07 07:51:49;;;;;;;3.47;2.80;;;;;;;;;;5010219;28;20069;-75
2023/07/07 07:54:18;;;;;;;3.35;2.85;;;;;;;;;;5029607;28;20411;-73
2023/07/07 07:56:45;;;;;;;4.63;2.75;;;;;;;;;;5001904;28;20482;-74
2023/07/07 07:59:11;;;;;;;4.18;2.58;;;;;;;;;;5030211;28;20052;-74
2023/07/07 08:01:36;;;;;;;3.33;2.72;;;;;;;;;;5011576;28;20756;-72
2023/07/07 08:04:05;;;;;;;4.35;2.58;;;;;;;;;;5023690;28;20052;-72
2023/07/07 08:06:31;;;;;;;3.30;3.00;;;;;;;;;;5018819;28;20041;-72
2023/07/07 08:08:57;;;;;;;3.35;2.75;;;;;;;;;;5026378;28;20076;-72
2023/07/07 08:11:45;;;;;;;3.80;2.78;;;;;;;;;;5022310;28;20499;-75
2023/07/07 08:14:12;;;;;;;3.33;2.70;;;;;;;;;;5014631;28;20052;-73
2023/07/07 08:16:37;;;;;;;5.38;2.28;;;;;;;;;;5023619;28;20075;-74
2023/07/07 08:19:03;;;;;;;3.53;2.70;;;;;;;;;;5025977;28;20073;-75
2023/07/07 08:21:28;;;;;;;4.15;2.55;;;;;;;;;;5030410;28;20102;-73
2023/07/07 08:23:54;;;;;;;3.42;2.85;;;;;;;;;;5025730;28;20060;-72
2023/07/07 08:26:19;;;;;;;3.63;2.47;;;;;;;;;;5021573;28;20045;-71
2023/07/07 08:28:44;;;;;;;3.58;2.72;;;;;;;;;;5028402;28;20104;-74
2023/07/07 08:31:10;;;;;;;4.20;2.90;;;;;;;;;;5032726;28;20040;-74
2023/07/07 08:33:36;;;;;;;3.38;2.63;;;;;;;;;;5025481;28;20827;-74
2023/07/07 08:36:01;;;;;;;4.05;3.08;;;;;;;;;;5025755;28;20049;-74
2023/07/07 08:38:26;;;;;;;4.43;2.97;;;;;;;;;;5023044;28;21013;-74
2023/07/07 08:40:55;;;;;;;3.35;2.63;;;;;;;;;;5023979;28;20479;-75
2023/07/07 08:43:22;;;;;;;4.35;2.92;;;;;;;;;;5028395;28;20057;-73
2023/07/07 08:46:05;;;;;;;3.78;3.05;;;;;;;;;;5026117;28;20139;-75
2023/07/07 08:48:52;;;;;;;3.70;2.83;;;;;;;;;;5021410;28;20049;-74
2023/07/07 08:51:23;;;;;;;3.80;2.53;;;;;;;;;;5026574;28;20060;-73
2023/07/07 08:54:11;;;;;;;4.72;3.13;;;;;;;;;;5027553;28;20044;-73
2023/07/07 08:56:58;;;;;;;3.35;2.60;;;;;;;;;;5023439;28;20045;-75
2023/07/07 08:59:33;;;;;;;4.90;2.78;;;;;;;;;;5021077;28;20046;-74
2023/07/07 09:02:31;;;;;;;5.43;3.15;;;;;;;;;;5020750;28;20045;-74
2023/07/07 09:05:32;;;;;;;4.82;2.80;;;;;;;;;;5003857;28;20191;-70
2023/07/07 09:08:18;;;;;;;4.05;2.75;;;;;;;;;;5027764;28;20167;-72
2023/07/07 09:10:50;;;;;;;3.97;2.97;;;;;;;;;;5020086;28;20057;-72
2023/07/07 09:13:38;;;;;;;3.60;2.35;;;;;;;;;;5031341;28;20458;-71
2023/07/07 09:16:26;;;;;;;2.90;2.60;;;;;;;;;;5021207;28;20077;-73
2023/07/07 09:19:15;;;;;;;3.08;2.47;;;;;;;;;;5048699;28;20072;-72
2023/07/07 09:21:53;;;;;;;3.75;2.80;;;;;;;;;;5033043;28;20106;-69
2023/07/07 09:24:28;;;;;;;4.90;2.38;;;;;;;;;;5003659;28;20057;-70
2023/07/07 09:27:02;;;;;;;3.75;2.72;;;;;;;;;;5022367;28;20044;-71
2023/07/07 09:29:30;;;;;;;2.72;2.53;;;;;;;;;;5029800;28;20058;-70
2023/07/07 09:31:59;;;;;;;3.17;2.72;;;;;;;;;;5031707;28;20877;-69
2023/07/07 09:34:24;;;;;;;3.45;2.58;;;;;;;;;;5020079;28;20052;-73
2023/07/07 09:37:15;;;;;;;3.80;2.70;;;;;;;;;;5030224;28;20042;-71
2023/07/07 09:39:45;;;;;;;3.83;2.47;;;;;;;;;;5022597;28;20103;-70
2023/07/07 09:42:13;;;;;;;3.88;2.70;;;;;;;;;;5026333;28;20111;-71
2023/07/07 09:45:05;;;;;;;3.45;2.42;;;;;;;;;;5025762;28;20058;-71
2023/07/07 09:47:38;;;;;;;;;;;;;;;;;;5023249;28;20056;-72
2023/07/07 09:50:15;;;;;;;3.47;2.72;;;;;;;;;;5031627;28;20913;-71
2023/07/07 09:52:40;;;;;;;3.17;2.65;;;;;;;;;;5025645;28;20055;-71
2023/07/07 09:55:24;;;;;;;3.75;2.83;;;;;;;;;;5025065;28;20053;-73
2023/07/07 09:58:20;;;;;;;3.38;2.33;;;;;;;;;;5027597;28;20914;-71
2023/07/07 10:00:52;;;;;;;3.35;2.45;;;;;;;;;;5023624;28;20531;-73
2023/07/07 10:03:21;;;;;;;4.32;2.80;;;;;;;;;;5033178;28;20049;-71
2023/07/07 10:05:49;;;;;;;7.20;2.90;;;;;;;;;;5031688;28;20144;-71
2023/07/07 10:08:14;;;;;;;3.42;2.80;;;;;;;;;;5031708;28;20038;-72
2023/07/07 10:10:40;;;;;;;4.03;3.17;;;;;;;;;;5025229;28;20356;-72
2023/07/07 10:13:14;;;;;;;4.25;3.33;;;;;;;;;;5034930;28;20406;-72
2023/07/07 10:15:58;;;;;;;3.53;3.00;;;;;;;;;;5022968;28;20495;-74
2023/07/07 10:18:27;;;;;;;3.72;2.90;;;;;;;;;;5023299;28;20087;-69
2023/07/07 10:20:56;;;;;;;5.22;2.80;;;;;;;;;;5021777;28;20590;-71
2023/07/07 10:23:22;;;;;;;5.03;3.20;;;;;;;;;;5019754;28;20538;-70
2023/07/07 10:25:47;;;;;;;4.05;2.88;;;;;;;;;;5022916;28;20151;-71
2023/07/07 10:28:16;;;;;;;4.07;3.17;;;;;;;;;;5019469;28;20076;-72
2023/07/07 10:30:43;;;;;;;6.03;3.30;;;;;;;;;;5020609;28;20061;-74
2023/07/07 10:33:15;;;;;;;6.10;3.05;;;;;;;;;;5016867;28;20164;-73
2023/07/07 10:35:40;;;;;;;4.38;2.83;;;;;;;;;;5022615;28;20137;-71
2023/07/07 10:38:06;;;;;;;4.47;3.28;;;;;;;;;;5023106;28;20156;-72
2023/07/07 10:40:32;;;;;;;4.90;3.63;;;;;;;;;;5020102;28;20056;-73
2023/07/07 10:42:58;;;;;;;4.50;3.47;;;;;;;;;;5017110;28;20050;-72
2023/07/07 10:45:24;;;;;;;4.70;3.00;;;;;;;;;;5024173;28;20041;-74
2023/07/07 10:47:51;;;;;;;5.80;3.08;;;;;;;;;;5021195;28;20040;-75
2023/07/07 10:50:20;;;;;;;4.38;3.15;;;;;;;;;;5019908;28;20534;-74
2023/07/07 10:52:58;;;;;;;4.55;2.97;;;;;;;;;;5023306;28;20041;-74
2023/07/07 10:55:35;;;;;;;5.03;2.95;;;;;;;;;;5027649;28;20041;-73
2023/07/07 10:58:28;;;;;;;3.92;2.67;;;;;;;;;;5031820;28;20073;-73
2023/07/07 11:00:57;;;;;;;4.32;2.83;;;;;;;;;;5044499;28;20603;-72
2023/07/07 11:03:31;;;;;;;4.20;3.03;;;;;;;;;;5033163;28;20052;-74
2023/07/07 11:06:21;;;;;;;3.15;2.83;;;;;;;;;;5028585;28;20060;-72
2023/07/07 11:08:53;;;;;;;6.18;3.05;;;;;;;;;;5036186;28;20163;-71
2023/07/07 11:12:00;;;;;;;3.92;3.50;;;;;;;;;;5032290;28;20494;-73
2023/07/07 11:14:43;;;;;;;5.47;3.45;;;;;;;;;;5024362;28;20057;-73
2023/07/07 11:17:40;;;;;;;4.25;3.20;;;;;;;;;;5030342;28;20049;-72
2023/07/07 11:20:22;;;;;;;3.83;2.97;;;;;;;;;;5027175;28;20498;-71
2023/07/07 11:23:16;;;;;;;4.40;3.17;;;;;;;;;;5029228;28;20058;-71
2023/07/07 11:25:47;;;;;;;3.78;3.05;;;;;;;;;;5027137;28;20045;-70
2023/07/07 11:28:26;;;;;;;3.42;2.85;;;;;;;;;;5029830;28;20048;-70
2023/07/07 11:31:19;;;;;;;3.17;2.83;;;;;;;;;;5023540;28;20059;-72
2023/07/07 11:33:51;;;;;;;3.72;3.25;;;;;;;;;;5030399;28;20052;-70
2023/07/07 11:36:25;;;;;;;5.10;3.03;;;;;;;;;;5028927;28;21034;-72
2023/07/07 11:39:18;;;;;;;3.45;3.15;;;;;;;;;;5043894;28;20052;-70
2023/07/07 11:41:55;;;;;;;3.60;2.90;;;;;;;;;;5029683;28;20124;-70
2023/07/07 11:44:30;;;;;;;3.95;3.05;;;;;;;;;;5027376;28;20057;-74
2023/07/07 11:47:13;;;;;;;4.63;3.50;;;;;;;;;;5028928;28;20133;-74
2023/07/07 11:50:08;;;;;;;5.88;3.97;;;;;;;;;;5028995;28;20131;-74
2023/07/07 11:52:50;;;;;;;4.55;3.70;;;;;;;;;;5029169;28;20044;-71
2023/07/07 11:55:34;;;;;;;5.80;3.65;;;;;;;;;;5029401;28;20073;-73
2023/07/07 11:58:13;;;;;;;3.85;3.33;;;;;;;;;;5030753;28;20049;-73
2023/07/07 12:01:19;;;;;;;6.13;3.20;;;;;;;;;;5028518;28;20056;-71
2023/07/07 12:03:57;;;;;;;3.13;2.83;;;;;;;;;;4997747;28;20081;-72
2023/07/07 12:06:33;;;;;;;4.57;3.60;;;;;;;;;;4996449;28;20046;-71
2023/07/07 12:09:43;;;;;;;5.90;3.45;;;;;;;;;;5010970;28;20085;-72
2023/07/07 12:12:22;;;;;;;4.72;3.53;;;;;;;;;;5014259;28;20140;-73
2023/07/07 12:14:54;;;;;;;5.82;3.75;;;;;;;;;;5033797;28;20057;-71
2023/07/07 12:17:25;;;;;;;4.47;3.35;;;;;;;;;;5020363;28;20053;-73
2023/07/07 12:19:53;;;;;;;;;;;;;;;;;;5028869;28;21003;-74
2023/07/07 12:22:23;;;;;;;4.95;3.22;;;;;;;;;;5031861;28;19920;-74
2023/07/07 12:24:58;;;;;;;5.90;3.20;;;;;;;;;;5027417;28;20040;-71
2023/07/07 12:27:39;;;;;;;5.43;3.42;;;;;;;;;;5027009;28;20052;-74
2023/07/07 12:30:06;;;;;;;6.35;3.65;;;;;;;;;;5031221;28;20052;-72
2023/07/07 12:32:33;;;;;;;5.65;3.88;;;;;;;;;;5029727;28;20049;-71
2023/07/07 12:35:28;;;;;;;3.88;3.38;;;;;;;;;;5030407;28;20057;-72
2023/07/07 12:38:09;;;;;;;5.68;3.78;;;;;;;;;;5009241;28;20045;-74
2023/07/07 12:40:40;;;;;;;5.45;4.10;;;;;;;;;;5021264;28;20055;-73
2023/07/07 12:43:21;;;;;;;5.15;3.58;;;;;;;;;;5027294;28;20077;-74
2023/07/07 12:45:47;;;;;;;5.28;3.72;;;;;;;;;;5024373;28;20091;-74
2023/07/07 12:48:26;;;;;;;5.60;4.00;;;;;;;;;;5021232;28;20221;-72
2023/07/07 12:50:57;;;;;;;4.80;3.53;;;;;;;;;;5041316;28;20088;-74
2023/07/07 12:53:34;;;;;;;8.38;3.78;;;;;;;;;;5020585;28;20053;-73
2023/07/07 12:56:05;;;;;;;4.88;3.75;;;;;;;;;;5030151;28;20132;-74
2023/07/07 12:58:36;;;;;;;4.68;3.80;;;;;;;;;;5020336;28;20107;-74
2023/07/07 13:01:14;;;;;;;5.25;3.42;;;;;;;;;;5023400;28;20148;-74
2023/07/07 13:04:07;;;;;;;4.97;3.75;;;;;;;;;;5021265;28;20049;-74
2023/07/07 13:06:51;;;;;;;6.25;3.90;;;;;;;;;;5030844;28;20635;-74
2023/07/07 13:09:23;;;;;;;7.55;4.65;;;;;;;;;;5015079;28;20053;-76
2023/07/07 13:11:50;;;;;;;5.72;4.30;;;;;;;;;;5030679;28;20051;-75
2023/07/07 13:14:41;;;;;;;6.07;4.03;;;;;;;;;;5025354;28;20068;-75
2023/07/07 13:17:22;;;;;;;4.90;3.97;;;;;;;;;;5000768;28;20049;-71
2023/07/07 13:20:00;;;;;;;7.28;3.83;;;;;;;;;;5020552;28;20037;-73
2023/07/07 13:22:32;;;;;;;6.97;4.28;;;;;;;;;;5027943;28;20136;-71
2023/07/07 13:25:02;;;;;;;4.68;3.70;;;;;;;;;;5024823;28;20049;-72
2023/07/07 13:27:27;;;;;;;6.57;4.20;;;;;;;;;;5028111;28;20049;-72
2023/07/07 13:29:59;;;;;;;5.35;3.65;;;;;;;;;;5021606;28;20049;-73
2023/07/07 13:32:30;;;;;;;6.10;3.80;;;;;;;;;;5018182;28;20063;-72
2023/07/07 13:34:58;;;;;;;6.13;4.30;;;;;;;;;;5019892;28;20053;-72
2023/07/07 13:37:25;;;;;;;7.43;4.78;;;;;;;;;;5020065;28;20037;-71
2023/07/07 13:39:50;;;;;;;6.57;4.18;;;;;;;;;;5022754;28;20490;-71
2023/07/07 13:42:24;;;;;;;6.50;4.30;;;;;;;;;;5020306;28;20051;-72
2023/07/07 13:45:02;;;;;;;8.90;4.72;;;;;;;;;;5030642;28;20053;-72
2023/07/07 13:47:31;;;;;;;6.05;4.10;;;;;;;;;;5029037;28;20099;-75
2023/07/07 13:49:58;;;;;;;9.07;4.30;;;;;;;;;;5025647;28;20568;-72
2023/07/07 13:52:27;;;;;;;6.57;4.93;;;;;;;;;;5029146;28;20038;-72
2023/07/07 13:54:54;;;;;;;5.45;4.07;;;;;;;;;;5027127;28;20045;-71
2023/07/07 13:57:30;;;;;;;5.53;4.20;;;;;;;;;;5027332;28;20136;-71
2023/07/07 13:59:56;;;;;;;8.27;4.30;;;;;;;;;;5020033;28;20057;-71
2023/07/07 14:02:23;;;;;;;6.70;3.92;;;;;;;;;;5026737;28;20057;-73
2023/07/07 14:04:56;;;;;;;4.28;3.72;;;;;;;;;;5028791;28;20523;-71
2023/07/07 14:07:22;;;;;;;7.80;4.38;;;;;;;;;;5027165;28;20562;-73
2023/07/07 14:09:49;;;;;;;8.15;4.40;;;;;;;;;;5027437;28;20041;-71
2023/07/07 14:12:25;;;;;;;5.97;4.20;;;;;;;;;;5030070;28;20171;-71
2023/07/07 14:14:53;;;;;;;7.60;4.28;;;;;;;;;;5021574;28;20049;-69
2023/07/07 14:17:30;;;;;;;6.75;4.25;;;;;;;;;;5021080;28;20486;-70
2023/07/07 14:20:18;;;;;;;6.68;4.57;;;;;;;;;;5022421;28;20045;-73
2023/07/07 14:22:43;;;;;;;7.13;4.47;;;;;;;;;;5021690;28;20057;-73
2023/07/07 14:25:21;;;;;;;10.23;3.85;;;;;;;;;;5030323;28;20053;-73
2023/07/07 14:27:47;;;;;;;8.00;4.88;;;;;;;;;;4996316;28;20041;-71
2023/07/07 14:30:20;;;;;;;8.77;4.30;;;;;;;;;;5019360;28;20048;-70
2023/07/07 14:32:47;;;;;;;6.43;4.13;;;;;;;;;;5024488;28;20050;-73
2023/07/07 14:35:19;;;;;;;9.18;4.40;;;;;;;;;;5024303;28;20076;-72
2023/07/07 14:37:53;;;;;;;4.97;3.80;;;;;;;;;;5012295;28;20092;-72
2023/07/07 14:40:32;;;;;;;5.35;4.30;;;;;;;;;;5030419;28;20178;-73
2023/07/07 14:43:00;;;;;;;5.57;4.18;;;;;;;;;;5041054;28;20139;-70
2023/07/07 14:45:33;;;;;;;6.07;4.53;;;;;;;;;;5032396;28;20037;-73
2023/07/07 14:47:59;;;;;;;5.95;4.20;;;;;;;;;;5027694;28;20060;-74
2023/07/07 14:50:28;;;;;;;4.90;4.03;;;;;;;;;;5029423;28;20055;-70
2023/07/07 14:52:56;;;;;;;8.23;4.75;;;;;;;;;;5024192;28;20041;-71
2023/07/07 14:55:24;;;;;;;6.88;4.57;;;;;;;;;;5041210;28;20049;-70
2023/07/07 14:57:56;;;;;;;6.07;4.18;;;;;;;;;;5025569;28;20053;-72
2023/07/07 15:00:40;;;;;;;6.82;3.97;;;;;;;;;;5028563;28;20094;-74
2023/07/07 15:03:27;;;;;;;6.28;4.38;;;;;;;;;;5041760;28;20055;-73
2023/07/07 15:06:13;;;;;;;4.38;3.80;;;;;;;;;;5029974;28;20049;-72